Time;durP1;ratioP1;P1;durP2;ratioP2;P2;SDS_P1;SDS_P2;PMS_P1;PMS_P2;Temp;Humidity;BMP_temperature;BMP_pressure;BME280_temperature;BME280_humidity;BME280_pressure;Samples;Min_cycle;Max_cycle;Signal;HPM_P1;HPM_P2
2021/09/04 00:00:46;;;;;;;16.63;3.40;;;;;;;11.79;100.00;101539.38;7404739;19;20842;-57
2021/09/04 00:03:16;;;;;;;19.37;4.70;;;;;;;11.92;100.00;101534.00;7397920;19;20407;-57
2021/09/04 00:05:46;;;;;;;8.37;3.50;;;;;;;11.93;100.00;101534.88;7404010;19;20395;-57
2021/09/04 00:08:15;;;;;;;13.20;4.07;;;;;;;11.78;100.00;101535.03;7400360;19;20419;-57
2021/09/04 00:10:47;;;;;;;8.77;4.20;;;;;;;11.45;100.00;101536.00;7401856;19;20402;-58
2021/09/04 00:13:17;;;;;;;7.90;3.33;;;;;;;11.42;100.00;101531.56;7398097;19;20500;-56
2021/09/04 00:15:46;;;;;;;15.40;3.90;;;;;;;11.19;100.00;101532.97;7403588;19;20384;-56
2021/09/04 00:18:16;;;;;;;10.67;4.00;;;;;;;11.19;100.00;101533.84;7400023;19;20408;-56
2021/09/04 00:20:45;;;;;;;9.17;5.00;;;;;;;11.10;100.00;101533.38;7404027;19;20387;-59
2021/09/04 00:23:15;;;;;;;18.43;4.00;;;;;;;10.97;100.00;101542.16;7396887;19;20518;-59
2021/09/04 00:25:44;;;;;;;8.23;3.20;;;;;;;10.90;100.00;101538.41;7403355;19;20459;-58
2021/09/04 00:28:16;;;;;;;11.07;4.20;;;;;;;10.94;100.00;101548.06;7398529;19;20483;-56
2021/09/04 00:30:46;;;;;;;11.33;3.93;;;;;;;10.85;100.00;101541.53;7401596;19;20451;-57
2021/09/04 00:33:16;;;;;;;11.50;3.80;;;;;;;10.93;100.00;101548.88;7397698;19;20747;-56
2021/09/04 00:35:45;;;;;;;18.37;3.70;;;;;;;11.03;100.00;101544.22;7403002;19;20451;-57
2021/09/04 00:38:15;;;;;;;8.30;3.10;;;;;;;11.05;100.00;101542.59;7388568;19;20486;-57
2021/09/04 00:40:44;;;;;;;8.03;2.90;;;;;;;11.09;100.00;101541.94;7403304;19;20725;-55
2021/09/04 00:43:16;;;;;;;9.73;3.40;;;;;;;11.22;100.00;101543.44;7397501;19;20418;-58
2021/09/04 00:45:46;;;;;;;11.63;3.70;;;;;;;11.25;100.00;101542.72;7402884;19;20383;-57
2021/09/04 00:48:15;;;;;;;15.10;3.43;;;;;;;11.18;100.00;101542.41;7399111;19;20508;-57
2021/09/04 00:50:45;;;;;;;10.70;3.93;;;;;;;10.85;100.00;101547.59;7401168;19;20409;-56
2021/09/04 00:53:15;;;;;;;12.73;5.13;;;;;;;10.80;100.00;101538.69;7396203;19;20476;-59
2021/09/04 00:55:44;;;;;;;9.13;4.10;;;;;;;10.72;100.00;101540.00;7402158;19;20664;-55
2021/09/04 00:58:16;;;;;;;8.37;3.53;;;;;;;10.87;100.00;101551.13;7398556;19;20483;-56
2021/09/04 01:00:46;;;;;;;12.90;4.73;;;;;;;10.90;100.00;101545.25;7402841;19;20392;-57
2021/09/04 01:03:15;;;;;;;9.97;4.20;;;;;;;10.97;100.00;101546.47;7374201;19;20459;-54
2021/09/04 01:05:45;;;;;;;11.63;3.80;;;;;;;11.12;100.00;101551.56;7402038;19;20412;-57
2021/09/04 01:08:15;;;;;;;7.47;3.90;;;;;;;10.96;100.00;101539.53;7398451;19;20440;-57
2021/09/04 01:10:45;;;;;;;8.10;3.97;;;;;;;10.93;100.00;101538.53;7404346;19;20406;-58
2021/09/04 01:13:17;;;;;;;9.30;4.13;;;;;;;11.04;100.00;101539.09;7385982;19;20771;-54
2021/09/04 01:15:47;;;;;;;13.60;4.10;;;;;;;11.29;100.00;101534.34;7402245;19;20396;-59
2021/09/04 01:18:18;;;;;;;10.47;3.80;;;;;;;11.40;100.00;101529.72;7387468;19;20932;-59
2021/09/04 01:20:47;;;;;;;15.07;4.00;;;;;;;11.30;100.00;101526.69;7402135;19;20466;-59
2021/09/04 01:23:17;;;;;;;8.43;3.93;;;;;;;11.14;100.00;101530.16;7395714;19;20431;-59
2021/09/04 01:25:54;;;;;;;14.83;4.30;;;;;;;11.03;100.00;101520.97;7401389;19;20720;-57
2021/09/04 01:28:26;;;;;;;10.33;3.40;;;;;;;11.02;100.00;101532.09;7397909;19;20429;-57
2021/09/04 01:30:55;;;;;;;8.20;4.20;;;;;;;10.98;100.00;101533.63;7400481;19;20709;-54
2021/09/04 01:33:25;;;;;;;10.80;4.17;;;;;;;11.02;100.00;101534.69;7385141;19;20417;-58
2021/09/04 01:35:55;;;;;;;7.53;4.17;;;;;;;11.18;100.00;101532.06;7400967;19;20721;-58
2021/09/04 01:38:24;;;;;;;6.07;3.43;;;;;;;11.02;100.00;101527.81;7385497;19;20414;-58
2021/09/04 01:40:53;;;;;;;10.73;3.83;;;;;;;11.17;100.00;101519.97;7401507;19;20455;-55
2021/09/04 01:43:25;;;;;;;14.63;4.60;;;;;;;11.39;100.00;101515.88;7395392;19;20519;-57
2021/09/04 01:45:55;;;;;;;16.57;4.40;;;;;;;11.27;100.00;101523.06;7400837;19;20397;-59
2021/09/04 01:48:25;;;;;;;6.83;3.47;;;;;;;11.28;100.00;101522.22;7396212;19;20881;-56
2021/09/04 01:50:54;;;;;;;6.87;3.87;;;;;;;11.24;100.00;101521.19;7399884;19;20479;-59
2021/09/04 01:53:24;;;;;;;7.33;3.73;;;;;;;11.24;100.00;101523.78;7395326;19;20500;-58
2021/09/04 01:55:53;;;;;;;7.97;3.80;;;;;;;11.37;100.00;101517.53;7400240;19;20463;-56
2021/09/04 01:58:25;;;;;;;13.23;4.10;;;;;;;11.49;100.00;101509.53;7395524;19;20415;-57
2021/09/04 02:00:55;;;;;;;10.13;3.67;;;;;;;11.56;100.00;101510.69;7400887;19;20398;-58
2021/09/04 02:03:25;;;;;;;8.73;3.53;;;;;;;11.48;100.00;101500.88;7384081;19;20889;-54
2021/09/04 02:05:54;;;;;;;13.83;4.03;;;;;;;11.43;100.00;101497.16;7399951;19;20387;-54
2021/09/04 02:08:24;;;;;;;9.77;4.13;;;;;;;11.48;100.00;101494.78;7397392;19;20419;-57
2021/09/04 02:10:53;;;;;;;12.03;3.20;;;;;;;11.50;100.00;101495.78;7397938;19;20864;-56
2021/09/04 02:13:27;;;;;;;11.77;3.90;;;;;;;11.59;100.00;101495.34;7384014;19;20423;-57
2021/09/04 02:15:58;;;;;;;9.97;3.40;;;;;;;11.56;100.00;101492.59;7399651;19;20459;-56
2021/09/04 02:18:29;;;;;;;8.57;3.60;;;;;;;11.70;100.00;101491.56;7395932;19;20906;-60
2021/09/04 02:20:58;;;;;;;10.40;3.80;;;;;;;11.65;100.00;101485.31;7399456;19;20388;-59
2021/09/04 02:23:28;;;;;;;14.00;3.40;;;;;;;11.78;100.00;101493.66;7393287;19;20435;-57
2021/09/04 02:25:57;;;;;;;17.23;4.10;;;;;;;11.83;100.00;101482.72;7399444;19;20451;-59
2021/09/04 02:28:29;;;;;;;8.30;3.30;;;;;;;11.87;100.00;101491.50;7395763;19;20419;-59
2021/09/04 02:30:59;;;;;;;5.37;2.80;;;;;;;11.80;100.00;101481.69;7399185;19;20451;-57
2021/09/04 02:33:29;;;;;;;11.93;3.80;;;;;;;11.91;100.00;101482.19;7397473;19;20456;-55
2021/09/04 02:35:59;;;;;;;9.70;3.50;;;;;;;11.89;100.00;101482.13;7399198;19;20862;-58
2021/09/04 02:38:28;;;;;;;8.40;3.80;;;;;;;11.84;100.00;101468.13;7398606;19;20419;-58
2021/09/04 02:40:58;;;;;;;9.10;3.80;;;;;;;11.83;100.00;101474.06;7399603;19;20400;-59
2021/09/04 02:43:30;;;;;;;7.33;3.13;;;;;;;11.80;100.00;101463.59;7382981;19;20425;-56
2021/09/04 02:45:59;;;;;;;14.80;4.20;;;;;;;11.97;100.00;101464.41;7398973;19;20462;-56
2021/09/04 02:48:29;;;;;;;15.47;3.57;;;;;;;12.18;100.00;101461.97;7398374;19;20474;-58
2021/09/04 02:50:58;;;;;;;6.53;2.90;;;;;;;12.06;100.00;101462.28;7398620;19;20382;-60
2021/09/04 02:53:28;;;;;;;11.20;4.17;;;;;;;11.94;100.00;101457.38;7394095;19;20450;-58
2021/09/04 02:55:57;;;;;;;7.50;3.50;;;;;;;12.05;100.00;101459.63;7398624;19;20380;-54
2021/09/04 02:58:30;;;;;;;8.47;3.30;;;;;;;12.07;100.00;101465.75;7394864;19;20691;-59
2021/09/04 03:00:59;;;;;;;11.63;3.73;;;;;;;12.13;100.00;101471.22;7399100;19;20387;-58
2021/09/04 03:03:29;;;;;;;7.97;4.00;;;;;;;12.10;100.00;101473.66;7362739;19;20415;-59
2021/09/04 03:06:00;;;;;;;48.53;29.10;;;;;;;12.24;100.00;101475.19;7398252;19;20416;-57
2021/09/04 03:08:30;;;;;;;12.77;3.57;;;;;;;12.19;100.00;101471.50;7397845;19;20422;-58
2021/09/04 03:11:06;;;;;;;14.03;7.43;;;;;;;12.25;100.00;101470.91;7386939;19;20461;-58
2021/09/04 03:13:38;;;;;;;7.80;3.83;;;;;;;12.19;100.00;101468.03;7396404;19;20435;-58
2021/09/04 03:16:08;;;;;;;18.33;3.77;;;;;;;12.22;100.00;101465.59;7394417;19;20451;-56
2021/09/04 03:18:37;;;;;;;9.17;4.27;;;;;;;12.21;100.00;101464.69;7397686;19;20773;-56
2021/09/04 03:21:07;;;;;;;8.23;4.17;;;;;;;12.24;100.00;101464.84;7386983;19;20402;-58
2021/09/04 03:23:36;;;;;;;15.90;3.93;;;;;;;12.27;100.00;101470.13;7402056;19;20501;-56
2021/09/04 03:26:06;;;;;;;10.23;4.70;;;;;;;12.20;100.00;101470.66;7400835;19;20771;-57
2021/09/04 03:28:35;;;;;;;9.60;3.83;;;;;;;12.18;100.00;101459.38;7404947;19;20463;-57
2021/09/04 03:31:07;;;;;;;9.93;3.60;;;;;;;12.17;100.00;101462.78;7401125;19;20838;-58
2021/09/04 03:33:37;;;;;;;10.70;4.70;;;;;;;12.20;100.00;101468.09;7402528;19;20433;-58
2021/09/04 03:36:06;;;;;;;9.60;4.17;;;;;;;12.39;100.00;101471.53;7401753;19;20395;-56
2021/09/04 03:38:36;;;;;;;19.63;10.30;;;;;;;12.55;100.00;101471.41;7404587;19;20463;-56
2021/09/04 03:41:05;;;;;;;15.50;7.20;;;;;;;12.54;100.00;101468.75;7402000;19;20465;-59
2021/09/04 03:43:36;;;;;;;11.70;4.33;;;;;;;12.36;100.00;101461.06;7402015;19;20423;-58
2021/09/04 03:46:08;;;;;;;10.03;4.00;;;;;;;12.39;100.00;101466.34;7401138;19;20390;-56
2021/09/04 03:48:37;;;;;;;9.53;4.27;;;;;;;12.39;100.00;101468.94;7404470;19;20392;-59
2021/09/04 03:51:07;;;;;;;11.40;5.03;;;;;;;12.44;100.00;101472.63;7397555;19;20917;-55
2021/09/04 03:53:36;;;;;;;15.87;4.63;;;;;;;12.43;100.00;101476.03;7401686;19;20499;-57
2021/09/04 03:56:07;;;;;;;8.87;4.20;;;;;;;12.47;100.00;101477.97;7400676;19;20749;-56
2021/09/04 03:58:36;;;;;;;7.97;4.60;;;;;;;12.50;100.00;101477.19;7404201;19;20488;-59
2021/09/04 04:01:08;;;;;;;10.47;4.10;;;;;;;12.49;100.00;101476.31;7390196;19;20854;-59
2021/09/04 04:03:38;;;;;;;8.50;4.93;;;;;;;12.52;100.00;101467.81;7401485;19;20415;-54
2021/09/04 04:06:08;;;;;;;16.00;5.00;;;;;;;12.62;100.00;101475.16;7397494;19;20400;-56
2021/09/04 04:08:37;;;;;;;22.53;7.70;;;;;;;12.58;100.00;101469.78;7403692;19;20376;-56
2021/09/04 04:11:08;;;;;;;22.30;12.10;;;;;;;12.56;100.00;101461.94;7397316;19;20405;-58
2021/09/04 04:13:38;;;;;;;18.13;8.97;;;;;;;12.56;100.00;101465.41;7401148;19;20415;-56
2021/09/04 04:16:11;;;;;;;9.07;4.37;;;;;;;12.62;100.00;101469.09;7397335;19;20402;-59
2021/09/04 04:18:41;;;;;;;15.73;4.93;;;;;;;12.59;100.00;101463.78;7403491;19;20387;-54
2021/09/04 04:21:10;;;;;;;23.90;13.33;;;;;;;12.77;100.00;101466.31;7397609;19;20448;-58
2021/09/04 04:23:40;;;;;;;10.80;5.93;;;;;;;12.63;100.00;101463.09;7401128;19;20491;-57
2021/09/04 04:26:09;;;;;;;10.50;4.50;;;;;;;12.66;100.00;101460.63;7396582;19;20396;-57
2021/09/04 04:28:39;;;;;;;10.90;5.43;;;;;;;12.77;100.00;101456.81;7403071;19;20455;-59
2021/09/04 04:31:11;;;;;;;7.67;5.17;;;;;;;12.80;100.00;101446.63;7396568;19;20384;-58
2021/09/04 04:33:40;;;;;;;13.40;5.77;;;;;;;12.80;100.00;101445.72;7399648;19;20415;-57
2021/09/04 04:36:10;;;;;;;10.63;4.70;;;;;;;12.79;100.00;101452.63;7396340;19;20464;-58
2021/09/04 04:38:39;;;;;;;11.13;6.07;;;;;;;12.78;100.00;101453.41;7402765;19;20460;-55
2021/09/04 04:41:09;;;;;;;7.53;4.90;;;;;;;12.77;100.00;101459.41;7396798;19;20472;-57
2021/09/04 04:43:38;;;;;;;12.70;5.47;;;;;;;12.80;100.00;101461.25;7400593;19;20491;-53
2021/09/04 04:46:10;;;;;;;15.07;4.43;;;;;;;12.75;100.00;101452.38;7395438;19;20926;-57
2021/09/04 04:48:41;;;;;;;11.83;6.17;;;;;;;12.82;100.00;101454.47;7402615;19;20384;-57
2021/09/04 04:51:11;;;;;;;20.43;10.60;;;;;;;12.89;100.00;101455.59;7396742;19;20467;-59
2021/09/04 04:53:40;;;;;;;14.50;5.87;;;;;;;12.87;100.00;101452.06;7400437;19;20435;-58
2021/09/04 04:56:10;;;;;;;9.23;5.07;;;;;;;13.04;100.00;101448.50;7396007;19;20730;-57
2021/09/04 04:58:39;;;;;;;15.10;5.90;;;;;;;12.99;100.00;101457.78;7402245;19;20432;-59
2021/09/04 05:01:11;;;;;;;11.50;5.40;;;;;;;13.08;100.00;101441.75;7386457;19;20463;-57
2021/09/04 05:03:41;;;;;;;25.23;14.33;;;;;;;13.18;100.00;101455.97;7402278;19;20413;-57
2021/09/04 05:06:11;;;;;;;36.80;13.30;;;;;;;13.10;100.00;101456.53;7395283;19;20380;-55
2021/09/04 05:08:41;;;;;;;28.93;16.20;;;;;;;13.10;100.00;101461.72;7401963;19;20733;-59
2021/09/04 05:11:10;;;;;;;15.13;7.57;;;;;;;13.04;100.00;101461.44;7395621;19;20394;-57
2021/09/04 05:13:39;;;;;;;12.43;5.80;;;;;;;13.02;100.00;101460.47;7399540;19;20491;-58
2021/09/04 05:16:14;;;;;;;8.07;5.23;;;;;;;12.98;100.00;101461.19;7395071;19;20400;-56
2021/09/04 05:18:44;;;;;;;18.57;11.33;;;;;;;13.07;100.00;101453.78;7401606;19;20383;-56
2021/09/04 05:21:14;;;;;;;18.00;8.20;;;;;;;13.06;100.00;101461.50;7394860;19;20420;-57
2021/09/04 05:23:43;;;;;;;11.40;5.20;;;;;;;12.92;100.00;101455.75;7402207;19;20460;-56
2021/09/04 05:26:13;;;;;;;11.63;5.90;;;;;;;12.94;100.00;101467.03;7398976;19;20471;-57
2021/09/04 05:28:43;;;;;;;12.27;7.47;;;;;;;13.03;100.00;101463.97;7401313;19;20392;-58
2021/09/04 05:31:15;;;;;;;25.07;11.83;;;;;;;13.04;100.00;101461.44;7395272;19;20455;-59
2021/09/04 05:33:45;;;;;;;10.00;5.60;;;;;;;13.04;100.00;101456.28;7399499;19;20388;-57
2021/09/04 05:36:14;;;;;;;13.20;5.40;;;;;;;13.08;100.00;101452.97;7394324;19;20406;-58
2021/09/04 05:38:44;;;;;;;23.20;12.00;;;;;;;13.14;100.00;101451.47;7400931;19;20400;-57
2021/09/04 05:41:13;;;;;;;11.07;6.30;;;;;;;13.20;100.00;101454.31;7395229;19;20384;-58
2021/09/04 05:43:43;;;;;;;27.67;13.70;;;;;;;13.29;100.00;101452.13;7401051;19;20392;-56
2021/09/04 05:46:15;;;;;;;31.93;19.27;;;;;;;13.30;100.00;101458.19;7392106;19;20390;-57
2021/09/04 05:48:44;;;;;;;19.73;7.50;;;;;;;13.27;100.00;101451.16;7400616;19;20407;-59
2021/09/04 05:51:14;;;;;;;14.80;6.57;;;;;;;13.25;100.00;101450.22;7393822;19;20667;-56
2021/09/04 05:53:43;;;;;;;9.63;5.07;;;;;;;13.24;100.00;101453.63;7399760;19;20388;-56
2021/09/04 05:56:13;;;;;;;15.40;5.90;;;;;;;13.24;100.00;101453.63;7393576;19;20399;-59
2021/09/04 05:58:42;;;;;;;11.90;5.73;;;;;;;13.34;100.00;101452.31;7400373;19;20392;-55
2021/09/04 06:01:14;;;;;;;14.13;5.97;;;;;;;13.40;100.00;101446.47;7394091;19;20451;-59
2021/09/04 06:03:44;;;;;;;22.57;6.20;;;;;;;13.36;100.00;101442.88;7400283;19;20408;-56
2021/09/04 06:06:14;;;;;;;12.97;6.43;;;;;;;13.41;100.00;101445.66;7393478;19;20414;-57
2021/09/04 06:08:43;;;;;;;17.53;7.63;;;;;;;13.39;100.00;101452.50;7400047;19;20447;-59
2021/09/04 06:11:13;;;;;;;17.77;7.50;;;;;;;13.49;100.00;101457.28;7393860;19;20463;-55
2021/09/04 06:13:42;;;;;;;22.73;7.73;;;;;;;13.51;100.00;101453.03;7398392;19;20427;-59
2021/09/04 06:16:14;;;;;;;14.70;6.30;;;;;;;13.55;100.00;101449.75;7393026;19;20460;-56
2021/09/04 06:18:44;;;;;;;14.27;7.20;;;;;;;13.65;100.00;101461.38;7399858;19;20652;-56
2021/09/04 06:21:13;;;;;;;11.83;6.70;;;;;;;13.72;100.00;101462.50;7393074;19;20395;-57
2021/09/04 06:23:43;;;;;;;13.77;6.90;;;;;;;13.68;100.00;101461.47;7399678;19;20454;-56
2021/09/04 06:26:12;;;;;;;14.47;6.30;;;;;;;13.70;100.00;101457.22;7392869;19;20402;-56
2021/09/04 06:28:42;;;;;;;15.53;7.90;;;;;;;13.72;100.00;101462.50;7399360;19;20392;-59
2021/09/04 06:31:11;;;;;;;15.50;7.30;;;;;;;13.79;100.00;101463.63;7393238;19;20398;-58
2021/09/04 06:33:44;;;;;;;16.93;6.50;;;;;;;13.85;100.00;101456.97;7398119;19;20830;-58
2021/09/04 06:36:13;;;;;;;17.37;6.90;;;;;;;13.89;100.00;101458.84;7392009;19;20396;-56
2021/09/04 06:38:43;;;;;;;18.80;7.00;;;;;;;13.90;100.00;101460.63;7399078;19;20443;-57
2021/09/04 06:41:12;;;;;;;15.57;6.87;;;;;;;13.91;100.00;101457.19;7382822;19;20399;-59
2021/09/04 06:43:41;;;;;;;18.63;7.77;;;;;;;13.97;100.00;101453.09;7398999;19;20841;-56
2021/09/04 06:46:11;;;;;;;15.37;7.57;;;;;;;14.00;100.00;101454.09;7392468;19;20451;-55
2021/09/04 06:48:43;;;;;;;16.87;7.50;;;;;;;14.10;100.00;101454.47;7398813;19;20667;-59
2021/09/04 06:51:13;;;;;;;12.23;7.50;;;;;;;14.07;100.00;101460.41;7395624;19;20393;-58
2021/09/04 06:53:45;;;;;;;17.70;8.23;;;;;;;14.13;100.00;101447.66;7397955;19;20392;-58
2021/09/04 06:56:15;;;;;;;19.80;7.47;;;;;;;14.18;100.00;101447.84;7394323;19;20386;-59
2021/09/04 06:58:44;;;;;;;12.47;7.70;;;;;;;14.51;100.00;101442.13;7398816;19;20760;-56
2021/09/04 07:01:14;;;;;;;18.37;7.80;;;;;;;14.50;100.00;101448.16;7395537;19;20392;-55
2021/09/04 07:03:46;;;;;;;16.90;7.67;;;;;;;14.63;100.00;101440.81;7399194;19;20391;-56
2021/09/04 07:06:16;;;;;;;15.10;6.57;;;;;;;14.58;100.00;101438.06;7395823;19;20388;-55
2021/09/04 07:08:45;;;;;;;16.17;6.90;;;;;;;14.65;100.00;101440.03;7398310;19;20402;-59
2021/09/04 07:11:15;;;;;;;19.93;7.87;;;;;;;14.70;100.00;101438.50;7396073;19;21445;-58
2021/09/04 07:13:44;;;;;;;17.63;7.00;;;;;;;14.63;100.00;101431.31;7397316;19;20394;-56
2021/09/04 07:16:14;;;;;;;21.37;7.97;;;;;;;14.69;100.00;101434.13;7394936;19;20390;-54
2021/09/04 07:18:46;;;;;;;17.07;7.30;;;;;;;14.80;100.00;101433.63;7398238;19;20719;-57
2021/09/04 07:21:16;;;;;;;16.20;7.40;;;;;;;14.90;100.00;101430.53;7395147;19;20444;-57
2021/09/04 07:23:45;;;;;;;21.50;7.40;;;;;;;14.89;100.00;101438.28;7398072;19;20485;-55
2021/09/04 07:26:15;;;;;;;14.43;7.67;;;;;;;14.93;100.00;101430.63;7394782;19;20396;-57
2021/09/04 07:28:44;;;;;;;19.80;8.60;;;;;;;14.90;100.00;101434.84;7397757;19;20443;-54
2021/09/04 07:31:14;;;;;;;16.83;7.20;;;;;;;15.00;100.00;101442.13;7394545;19;20909;-58
2021/09/04 07:33:46;;;;;;;11.83;6.53;;;;;;;15.02;100.00;101440.47;7397035;19;20391;-54
2021/09/04 07:36:15;;;;;;;68.30;38.57;;;;;;;15.10;100.00;101433.84;7394321;19;20700;-57
2021/09/04 07:38:45;;;;;;;16.97;7.90;;;;;;;15.31;100.00;101443.19;7397538;19;20474;-55
2021/09/04 07:41:14;;;;;;;22.60;14.00;;;;;;;15.25;100.00;101433.47;7394193;19;20468;-58
2021/09/04 07:43:43;;;;;;;17.37;6.97;;;;;;;15.11;100.00;101429.50;7397532;19;20769;-54
2021/09/04 07:46:13;;;;;;;14.13;6.70;;;;;;;15.16;100.00;101438.34;7394025;19;20463;-55
2021/09/04 07:48:45;;;;;;;17.47;7.90;;;;;;;15.11;100.00;101434.69;7397138;19;20398;-56
2021/09/04 07:51:15;;;;;;;17.13;6.97;;;;;;;15.13;100.00;101440.84;7391232;19;20842;-58
2021/09/04 07:53:44;;;;;;;12.70;7.00;;;;;;;15.21;100.00;101438.50;7396265;19;20443;-51
2021/09/04 07:56:14;;;;;;;16.10;7.90;;;;;;;15.19;100.00;101441.06;7392141;19;20419;-57
2021/09/04 07:58:43;;;;;;;19.77;7.97;;;;;;;15.27;100.00;101443.03;7397721;19;20421;-57
2021/09/04 08:01:13;;;;;;;13.73;7.00;;;;;;;15.35;100.00;101449.34;7388324;19;20429;-56
2021/09/04 08:03:45;;;;;;;20.80;9.40;;;;;;;15.39;100.00;101443.44;7398895;19;20392;-54
2021/09/04 08:06:15;;;;;;;17.60;8.50;;;;;;;15.39;100.00;101446.91;7390832;19;20401;-55
2021/09/04 08:08:44;;;;;;;26.07;10.73;;;;;;;15.39;100.00;101446.03;7403051;19;20426;-53
2021/09/04 08:11:15;;;;;;;14.23;7.47;;;;;;;15.35;100.00;101444.16;7400960;19;20866;-54
2021/09/04 08:13:44;;;;;;;14.43;6.83;;;;;;;15.55;100.00;101446.53;7402969;19;20363;-53
2021/09/04 08:16:14;;;;;;;18.90;8.43;;;;;;;15.41;100.00;101444.34;7396665;19;20679;-51
2021/09/04 08:18:46;;;;;;;27.23;14.57;;;;;;;15.43;100.00;101450.47;7405773;19;20410;-55
2021/09/04 08:21:16;;;;;;;40.13;19.00;;;;;;;15.57;100.00;101450.94;7397016;19;20394;-54
2021/09/04 08:23:45;;;;;;;18.07;6.30;;;;;;;15.64;100.00;101452.03;7407072;19;20440;-55
2021/09/04 08:26:15;;;;;;;22.27;10.37;;;;;;;15.80;100.00;101450.81;7385507;19;20411;-52
2021/09/04 08:28:45;;;;;;;11.80;6.57;;;;;;;15.78;100.00;101455.06;7403555;19;20394;-53
2021/09/04 08:31:14;;;;;;;32.27;15.23;;;;;;;16.08;100.00;101459.47;7394840;19;20384;-54
2021/09/04 08:33:47;;;;;;;47.80;25.17;;;;;;;16.24;100.00;101458.22;7403674;19;20406;-50
2021/09/04 08:36:16;;;;;;;27.13;15.50;;;;;;;16.09;100.00;101455.16;7397377;19;20399;-52
2021/09/04 08:38:46;;;;;;;36.17;18.37;;;;;;;15.88;100.00;101466.63;7403116;19;20745;-49
2021/09/04 08:41:15;;;;;;;14.90;6.13;;;;;;;15.68;100.00;101471.22;7396238;19;20666;-54
2021/09/04 08:43:45;;;;;;;38.37;22.43;;;;;;;15.74;100.00;101485.28;7402023;19;20398;-55
2021/09/04 08:46:16;;;;;;;18.67;8.20;;;;;;;15.78;100.00;101476.75;7393294;19;20741;-52
2021/09/04 08:48:51;;;;;;;33.07;12.53;;;;;;;15.91;100.00;101477.16;7402345;19;20404;-55
2021/09/04 08:51:20;;;;;;;15.47;6.80;;;;;;;15.96;100.00;101483.41;7398626;19;20455;-56
2021/09/04 08:53:50;;;;;;;10.07;5.10;;;;;;;15.86;100.00;101490.03;7402250;19;20459;-56
2021/09/04 08:56:19;;;;;;;20.00;8.63;;;;;;;15.95;100.00;101491.16;7377191;19;20455;-55
2021/09/04 08:58:49;;;;;;;21.10;11.33;;;;;;;15.95;100.00;101493.78;7401266;19;20408;-56
2021/09/04 09:01:22;;;;;;;15.30;7.10;;;;;;;16.04;100.00;101494.94;7397162;19;20384;-51
2021/09/04 09:03:56;;;;;;;19.37;8.63;;;;;;;16.09;100.00;101489.00;7402235;19;20395;-55
2021/09/04 09:06:35;;;;;;;21.53;10.37;;;;;;;16.24;100.00;101499.88;7396495;19;20690;-55
2021/09/04 09:09:16;;;;;;;23.20;11.33;;;;;;;16.26;100.00;101506.00;7402512;19;20420;-56
2021/09/04 09:11:47;;;;;;;12.50;8.50;;;;;;;16.13;100.00;101501.25;7398339;19;20415;-51
2021/09/04 09:14:16;;;;;;;21.43;9.80;;;;;;;16.09;100.00;101504.63;7401516;19;20387;-59
2021/09/04 09:16:54;;;;;;;13.43;6.93;;;;;;;16.12;100.00;101504.69;7397704;19;20735;-54
2021/09/04 09:19:29;;;;;;;12.73;6.40;;;;;;;16.08;100.00;101510.63;7402116;19;20402;-57
2021/09/04 09:21:59;;;;;;;23.10;9.10;;;;;;;16.02;100.00;101509.63;7397366;19;20422;-53
2021/09/04 09:24:29;;;;;;;13.93;7.37;;;;;;;16.29;100.00;101506.09;7406576;19;20424;-53
2021/09/04 09:27:00;;;;;;;13.10;6.53;;;;;;;16.58;100.00;101506.09;7397668;19;20474;-56
2021/09/04 09:29:32;;;;;;;22.70;8.80;;;;;;;16.46;100.00;101503.13;7401947;19;20410;-52
2021/09/04 09:32:03;;;;;;;19.13;11.20;;;;;;;16.50;100.00;101510.16;7368493;19;20433;-57
2021/09/04 09:34:38;;;;;;;8.90;6.17;;;;;;;16.45;100.00;101516.94;7400138;19;20398;-49
2021/09/04 09:37:08;;;;;;;14.93;7.30;;;;;;;16.22;100.00;101514.56;7374632;19;20478;-52
2021/09/04 09:39:39;;;;;;;13.80;6.03;;;;;;;16.25;100.00;101524.19;7403337;19;20472;-51
2021/09/04 09:42:11;;;;;;;21.17;12.13;;;;;;;16.20;100.00;101516.22;7369645;19;20439;-55
2021/09/04 09:44:42;;;;;;;33.77;18.40;;;;;;;16.20;100.00;101521.41;7400598;19;20393;-53
2021/09/04 09:47:12;;;;;;;24.50;12.50;;;;;;;16.25;100.00;101514.63;7367608;19;20469;-49
2021/09/04 09:49:46;;;;;;;13.07;6.80;;;;;;;16.32;100.00;101519.19;7400980;19;20388;-54
2021/09/04 09:52:17;;;;;;;17.73;5.93;;;;;;;16.28;100.00;101522.56;7371361;19;20494;-50
2021/09/04 09:54:48;;;;;;;20.10;9.67;;;;;;;16.20;100.00;101516.22;7399586;19;20409;-51
2021/09/04 09:57:18;;;;;;;12.20;6.70;;;;;;;16.30;100.00;101528.69;7373210;19;20475;-56
2021/09/04 09:59:48;;;;;;;13.17;5.30;;;;;;;16.39;100.00;101530.69;7403876;19;20485;-54
2021/09/04 10:02:18;;;;;;;17.40;9.10;;;;;;;16.42;100.00;101529.91;7364895;19;20495;-57
2021/09/04 10:04:51;;;;;;;18.10;8.40;;;;;;;16.43;100.00;101534.25;7403210;19;20435;-55
2021/09/04 10:07:21;;;;;;;19.33;10.20;;;;;;;16.29;100.00;101524.31;7372565;19;20716;-52
2021/09/04 10:09:51;;;;;;;12.73;6.53;;;;;;;16.34;100.00;101524.44;7401593;19;20398;-56
2021/09/04 10:12:21;;;;;;;13.53;6.83;;;;;;;16.43;100.00;101529.06;7383138;19;20419;-52
2021/09/04 10:14:52;;;;;;;18.40;10.17;;;;;;;16.54;100.00;101525.06;7399126;19;20861;-54
2021/09/04 10:17:22;;;;;;;30.40;15.00;;;;;;;16.62;100.00;101532.22;7373738;19;20405;-55
2021/09/04 10:19:55;;;;;;;26.43;11.13;;;;;;;16.64;100.00;101528.81;7399435;19;20394;-52
2021/09/04 10:22:24;;;;;;;19.70;11.70;;;;;;;16.56;100.00;101525.97;7392626;19;20521;-53
2021/09/04 10:24:57;;;;;;;21.47;12.03;;;;;;;16.66;100.00;101516.69;7399806;19;20451;-51
2021/09/04 10:27:32;;;;;;;21.70;11.60;;;;;;;16.88;100.00;101527.75;7395748;19;20413;-54
2021/09/04 10:30:29;;;;;;;21.57;7.20;;;;;;;16.93;100.00;101525.25;7400101;19;20393;-55
2021/09/04 10:33:00;;;;;;;17.80;7.27;;;;;;;16.99;100.00;101530.66;7395160;19;20450;-53
2021/09/04 10:35:48;;;;;;;12.57;6.13;;;;;;;16.92;100.00;101528.72;7397708;19;20388;-56
2021/09/04 10:38:35;;;;;;;14.77;5.93;;;;;;;16.97;100.00;101533.19;7393507;19;20412;-51
2021/09/04 10:41:36;;;;;;;50.33;27.63;;;;;;;17.55;100.00;101529.53;7390737;19;20422;-56
2021/09/04 10:44:07;;;;;;;15.13;6.60;;;;;;;17.68;100.00;101522.88;7397955;19;20422;-50
2021/09/04 10:46:37;;;;;;;18.63;10.70;;;;;;;17.73;100.00;101529.09;7370148;19;20510;-53
2021/09/04 10:49:07;;;;;;;11.07;4.80;;;;;;;17.73;100.00;101518.66;7397760;19;20455;-55
2021/09/04 10:51:53;;;;;;;20.77;12.00;;;;;;;17.73;100.00;101509.97;7380954;19;21257;-57
2021/09/04 10:55:04;;;;;;;9.93;5.07;;;;;;;17.73;100.00;101508.22;7399138;19;20392;-54
2021/09/04 10:57:47;;;;;;;18.10;8.33;;;;;;;18.11;100.00;101510.00;7372607;19;20405;-50
2021/09/04 11:00:22;;;;;;;13.77;5.70;;;;;;;18.17;100.00;101497.09;7398717;19;20439;-53
2021/09/04 11:02:53;;;;;;;10.23;5.17;;;;;;;18.33;100.00;101498.28;7385178;19;20418;-52
2021/09/04 11:05:30;;;;;;;8.43;4.00;;;;;;;18.42;100.00;101492.38;7397620;19;20376;-52
2021/09/04 11:08:07;;;;;;;7.73;4.20;;;;;;;18.13;100.00;101495.25;7359859;19;20691;-54
2021/09/04 11:10:37;;;;;;;12.30;4.60;;;;;;;18.05;100.00;101489.84;7402218;19;20711;-51
2021/09/04 11:13:38;;;;;;;12.10;4.80;;;;;;;17.70;100.00;101492.50;7370419;19;20431;-56
2021/09/04 11:16:32;;;;;;;10.37;5.47;;;;;;;17.67;100.00;101501.13;7369729;19;20395;-56
2021/09/04 11:19:08;;;;;;;8.40;4.23;;;;;;;17.65;100.00;101500.19;7397161;19;20457;-55
2021/09/04 11:22:03;;;;;;;10.20;4.40;;;;;;;17.83;100.00;101506.72;7389816;19;20697;-53
2021/09/04 11:24:38;;;;;;;13.13;5.40;;;;;;;17.98;100.00;101510.50;7397984;19;20391;-57
2021/09/04 11:27:10;;;;;;;10.30;6.07;;;;;;;18.02;100.00;101507.13;7387041;19;20938;-52